Time;durP1;ratioP1;P1;durP2;ratioP2;P2;SDS_P1;SDS_P2;PMS_P1;PMS_P2;Temp;Humidity;BMP_temperature;BMP_pressure;BME280_temperature;BME280_humidity;BME280_pressure;Samples;Min_cycle;Max_cycle;Signal;HPM_P1;HPM_P2
2021/09/01 00:00:46;;;;;;;11.55;10.50;;;12.60;99.90;;;13.39;99.68;98778.97;5173022;28;20645;-57
2021/09/01 00:03:21;;;;;;;20.20;10.60;;;12.50;99.90;;;13.36;99.83;98779.69;5183898;28;20691;-58
2021/09/01 00:05:54;;;;;;;10.88;9.85;;;12.60;99.90;;;13.30;100.00;98776.75;5183975;28;20318;-56
2021/09/01 00:08:27;;;;;;;16.48;11.00;;;12.50;99.90;;;13.25;100.00;98780.69;5174745;28;20199;-58
2021/09/01 00:11:00;;;;;;;13.23;9.77;;;12.50;99.90;;;13.24;99.64;98784.03;5173732;28;20299;-56
2021/09/01 00:13:33;;;;;;;14.30;9.95;;;12.50;99.90;;;13.16;99.69;98774.97;5175439;28;20203;-53
2021/09/01 00:16:06;;;;;;;10.70;9.63;;;12.40;99.90;;;13.17;100.00;98772.53;5184083;28;20223;-54
2021/09/01 00:18:41;;;;;;;18.17;11.18;;;12.40;99.90;;;13.17;100.00;98771.63;5183763;28;20309;-56
2021/09/01 00:21:14;;;;;;;10.57;9.48;;;12.40;99.90;;;13.17;100.00;98769.06;5182569;28;20202;-55
2021/09/01 00:23:47;;;;;;;32.92;11.27;;;12.40;99.90;;;13.10;100.00;98774.59;5186637;28;20194;-57
2021/09/01 00:26:21;;;;;;;35.55;10.30;;;12.40;99.90;;;12.93;100.00;98769.31;5187731;28;20313;-53
2021/09/01 00:28:54;;;;;;;22.30;10.45;;;12.20;99.90;;;12.96;100.00;98777.22;5170164;28;20195;-56
2021/09/01 00:31:27;;;;;;;11.35;10.25;;;12.20;99.90;;;12.98;100.00;98773.06;5176997;28;20206;-59
2021/09/01 00:34:02;;;;;;;10.90;9.80;;;12.30;99.90;;;13.06;100.00;98773.53;5181771;28;20202;-53
2021/09/01 00:36:35;;;;;;;12.15;10.50;;;12.40;99.90;;;13.10;100.00;98775.47;5186052;28;20735;-55
2021/09/01 00:39:08;;;;;;;10.32;9.55;;;12.40;99.90;;;13.14;100.00;98784.28;5186719;28;20601;-54
2021/09/01 00:41:41;;;;;;;9.70;8.93;;;12.40;99.90;;;13.19;100.00;98781.22;5185259;28;20209;-54
2021/09/01 00:44:20;;;;;;;13.40;9.68;;;12.50;99.90;;;13.21;100.00;98791.56;5186724;28;20211;-59
2021/09/01 00:46:55;;;;;;;10.38;9.57;;;12.50;99.90;;;13.19;100.00;98788.91;5186792;28;20237;-54
2021/09/01 00:49:30;;;;;;;9.75;8.90;;;12.50;99.90;;;13.17;100.00;98793.06;5187229;28;20582;-54
2021/09/01 00:52:04;;;;;;;11.27;9.50;;;12.40;99.90;;;13.17;100.00;98787.03;5187543;28;20696;-53
2021/09/01 00:54:39;;;;;;;14.85;10.05;;;12.40;99.90;;;13.08;100.00;98780.53;5182350;28;20206;-55
2021/09/01 00:57:13;;;;;;;20.33;9.85;;;12.40;99.90;;;13.17;100.00;98779.34;5182806;28;20221;-56
2021/09/01 00:59:46;;;;;;;9.90;9.00;;;12.40;99.90;;;13.00;100.00;98780.84;5166663;28;20225;-53
2021/09/01 01:02:21;;;;;;;10.18;9.27;;;12.20;99.90;;;12.98;100.00;98775.63;5172209;28;20201;-55
2021/09/01 01:04:55;;;;;;;11.07;9.82;;;12.20;99.90;;;12.95;100.00;98775.44;5186609;28;20301;-52
2021/09/01 01:07:29;;;;;;;14.93;9.45;;;12.20;99.90;;;12.92;100.00;98780.38;5166718;28;20270;-56
2021/09/01 01:10:02;;;;;;;11.07;9.98;;;12.10;99.90;;;12.91;100.00;98783.75;5166800;28;20205;-56
2021/09/01 01:12:35;;;;;;;19.88;10.52;;;12.20;99.90;;;12.89;100.00;98790.44;5173457;28;20334;-56
2021/09/01 01:15:10;;;;;;;10.30;9.48;;;12.10;99.90;;;12.87;100.00;98786.88;5187105;28;20692;-55
2021/09/01 01:17:43;;;;;;;10.63;9.60;;;12.10;99.90;;;12.93;100.00;98779.56;5185635;28;20221;-54
2021/09/01 01:20:18;;;;;;;10.90;9.90;;;12.10;99.90;;;12.85;100.00;98780.78;5186834;28;20834;-55
2021/09/01 01:22:51;;;;;;;14.02;9.55;;;12.10;99.90;;;12.90;100.00;98784.50;5185617;28;20711;-58
2021/09/01 01:25:34;;;;;;;10.18;9.27;;;12.20;99.90;;;12.87;100.00;98778.31;5186196;28;20297;-59
2021/09/01 01:28:10;;;;;;;10.38;9.43;;;12.10;99.90;;;12.89;100.00;98776.72;5183696;28;20293;-58
2021/09/01 01:30:43;;;;;;;10.32;9.40;;;12.20;99.90;;;12.91;100.00;98780.28;5182906;28;20194;-54
2021/09/01 01:33:17;;;;;;;11.48;9.15;;;12.20;99.90;;;12.85;100.00;98778.22;5186191;28;20199;-56
2021/09/01 01:35:50;;;;;;;15.93;9.60;;;12.10;99.90;;;12.79;100.00;98777.81;5186619;28;20591;-56
2021/09/01 01:38:23;;;;;;;30.58;10.45;;;12.00;99.90;;;12.74;100.00;98780.09;5186479;28;20205;-56
2021/09/01 01:40:57;;;;;;;10.13;8.95;;;12.00;99.90;;;12.95;100.00;98775.44;5184741;28;20213;-57
2021/09/01 01:43:35;;;;;;;9.15;8.25;;;12.10;99.90;;;12.81;100.00;98763.41;5185841;28;20212;-56
2021/09/01 01:48:41;;;;;;;11.60;9.48;;;11.90;99.90;;;12.71;100.00;98769.66;5178847;28;20219;-56
2021/09/01 01:51:14;;;;;;;23.33;9.05;;;12.00;99.90;;;12.67;100.00;98775.34;5166267;28;20588;-52
2021/09/01 01:53:52;;;;;;;9.73;8.93;;;11.90;99.90;;;12.68;100.00;98772.03;5165858;28;20241;-56
2021/09/01 01:56:26;;;;;;;9.82;8.93;;;12.00;99.90;;;12.74;100.00;98779.22;5182284;28;20202;-56
2021/09/01 01:58:59;;;;;;;11.02;9.90;;;12.00;99.90;;;12.80;100.00;98784.75;5176386;28;20735;-56
2021/09/01 02:01:32;;;;;;;30.42;9.02;;;12.10;99.90;;;12.81;100.00;98776.25;5186092;28;20203;-55
2021/09/01 02:04:05;;;;;;;10.77;9.45;;;12.10;99.90;;;12.82;100.00;98780.59;5185633;28;20205;-56
2021/09/01 02:06:38;;;;;;;10.43;9.55;;;12.10;99.90;;;12.80;100.00;98775.34;5186091;28;20218;-58
2021/09/01 02:09:12;;;;;;;10.23;9.32;;;12.10;99.90;;;12.79;100.00;98775.25;5184700;28;20198;-55
2021/09/01 02:11:46;;;;;;;10.38;9.38;;;12.10;99.90;;;12.85;100.00;98778.22;5185904;28;20202;-58
2021/09/01 02:14:19;;;;;;;9.55;8.75;;;12.20;99.90;;;12.91;100.00;98781.19;5185395;28;20224;-54
2021/09/01 02:16:52;;;;;;;10.40;9.32;;;12.20;99.90;;;12.87;100.00;98781.75;5184499;28;20583;-56
2021/09/01 02:19:25;;;;;;;9.93;9.02;;;12.10;99.90;;;12.87;100.00;98786.00;5165393;28;20230;-56
2021/09/01 02:21:58;;;;;;;14.70;10.05;;;12.10;99.90;;;12.83;100.00;98775.56;5165451;28;20207;-56
2021/09/01 02:24:31;;;;;;;10.25;8.90;;;12.10;99.90;;;12.79;100.00;98782.94;5172082;28;20206;-56
2021/09/01 02:27:06;;;;;;;12.13;8.48;;;12.00;99.90;;;12.80;100.00;98779.59;5184205;28;20222;-55
2021/09/01 02:29:39;;;;;;;10.32;9.30;;;12.00;99.90;;;12.78;100.00;98782.06;5176612;28;20720;-56
2021/09/01 02:32:13;;;;;;;9.55;8.75;;;12.00;99.90;;;12.79;100.00;98783.84;5165224;28;20270;-53
2021/09/01 02:34:46;;;;;;;11.20;9.85;;;12.00;99.90;;;12.78;100.00;98787.19;5165120;28;20207;-56
2021/09/01 02:37:19;;;;;;;10.13;9.23;;;12.00;99.90;;;12.70;100.00;98783.25;5169238;28;20214;-56
2021/09/01 02:39:52;;;;;;;11.07;9.68;;;12.00;99.90;;;12.75;100.00;98787.00;5178520;28;20225;-59
2021/09/01 02:42:26;;;;;;;9.80;9.00;;;12.00;99.90;;;12.80;100.00;98779.59;5184614;28;20224;-53
2021/09/01 02:45:00;;;;;;;10.02;9.13;;;12.10;99.90;;;12.82;100.00;98784.06;5185424;28;20208;-53
2021/09/01 02:47:34;;;;;;;10.23;9.23;;;12.10;99.90;;;12.77;100.00;98782.88;5185222;28;20225;-56
2021/09/01 02:50:08;;;;;;;9.40;8.60;;;12.00;99.90;;;12.73;100.00;98787.69;5173378;28;20199;-59
2021/09/01 02:52:42;;;;;;;21.67;8.80;;;12.00;99.90;;;12.67;100.00;98783.06;5164860;28;20696;-54
2021/09/01 02:55:15;;;;;;;9.63;8.70;;;11.90;99.90;;;12.66;100.00;98795.81;5175607;28;20198;-56
2021/09/01 02:57:49;;;;;;;14.23;10.15;;;11.90;99.90;;;12.70;100.00;98790.06;5183509;28;20238;-56
2021/09/01 03:00:22;;;;;;;11.88;10.70;;;11.90;99.90;;;12.60;100.00;98789.47;5182673;28;20217;-52
2021/09/01 03:02:55;;;;;;;13.10;10.50;;;11.90;99.90;;;12.58;100.00;98793.63;5185319;28;20562;-54
2021/09/01 03:05:29;;;;;;;21.38;10.85;;;11.90;99.90;;;12.54;100.00;98788.22;5185072;28;20229;-54
2021/09/01 03:08:02;;;;;;;11.10;9.95;;;11.80;99.90;;;12.54;100.00;98791.66;5184049;28;20218;-52
2021/09/01 03:10:35;;;;;;;10.93;9.93;;;11.80;99.90;;;12.45;100.00;98790.16;5185170;28;20195;-55
2021/09/01 03:13:09;;;;;;;13.73;11.18;;;11.70;99.90;;;12.46;100.00;98792.84;5184788;28;20297;-56
2021/09/01 03:15:42;;;;;;;14.52;11.05;;;11.60;99.90;;;12.40;100.00;98793.31;5184239;28;20202;-50
2021/09/01 03:18:15;;;;;;;32.13;12.30;;;11.60;99.90;;;12.32;100.00;98796.19;5172010;28;20222;-56
2021/09/01 03:20:48;;;;;;;11.60;10.27;;;11.50;99.90;;;12.26;100.00;98794.09;5183558;28;20227;-55
2021/09/01 03:23:22;;;;;;;13.88;11.35;;;11.50;99.90;;;12.16;100.00;98791.72;5184667;28;20198;-56
2021/09/01 03:25:55;;;;;;;11.07;10.07;;;11.40;99.90;;;12.23;100.00;98798.16;5185328;28;20199;-56
2021/09/01 03:28:29;;;;;;;16.35;10.90;;;11.60;99.90;;;12.22;100.00;98797.28;5170385;28;20220;-55
2021/09/01 03:31:02;;;;;;;12.68;10.20;;;11.50;99.90;;;12.21;100.00;98792.03;5167975;28;20198;-57
2021/09/01 03:33:35;;;;;;;12.57;11.30;;;11.40;99.90;;;12.16;100.00;98792.63;5184609;28;20688;-52
2021/09/01 03:36:08;;;;;;;13.35;12.05;;;11.50;99.90;;;12.23;100.00;98793.03;5184761;28;20209;-57
2021/09/01 03:38:41;;;;;;;13.38;10.88;;;11.60;99.90;;;12.31;100.00;98795.31;5168352;28;20210;-56
2021/09/01 03:41:14;;;;;;;10.57;9.63;;;11.70;99.90;;;12.36;100.00;98796.50;5180653;28;20218;-56
2021/09/01 03:43:49;;;;;;;11.57;10.55;;;11.70;99.90;;;12.42;100.00;98801.13;5184489;28;20199;-56
2021/09/01 03:46:22;;;;;;;12.27;11.07;;;11.70;99.90;;;12.46;100.00;98800.53;5184433;28;20210;-56
2021/09/01 03:48:55;;;;;;;11.27;10.07;;;11.70;99.90;;;12.36;100.00;98806.75;5166639;28;20218;-58
2021/09/01 03:51:28;;;;;;;21.65;11.02;;;11.60;99.90;;;12.33;100.00;98800.50;5164154;28;20602;-58
2021/09/01 03:54:01;;;;;;;20.50;10.50;;;11.60;99.90;;;12.23;100.00;98804.16;5165340;28;20683;-55
2021/09/01 03:56:34;;;;;;;10.60;9.70;;;11.50;99.90;;;12.17;100.00;98801.19;5185742;28;20723;-55
2021/09/01 03:59:09;;;;;;;15.65;10.20;;;11.40;99.90;;;12.18;100.00;98816.66;5169552;28;20667;-55
2021/09/01 04:01:42;;;;;;;17.30;11.40;;;11.40;99.90;;;12.14;100.00;98809.56;5180279;28;20218;-59
2021/09/01 04:04:16;;;;;;;13.90;10.38;;;11.50;99.90;;;12.20;100.00;98813.34;5188269;28;20206;-56
2021/09/01 04:06:49;;;;;;;19.30;11.25;;;11.40;99.90;;;12.13;100.00;98812.94;5185380;28;20225;-56
2021/09/01 04:09:22;;;;;;;16.58;12.60;;;11.40;99.90;;;12.12;100.00;98811.13;5167991;28;20199;-57
2021/09/01 04:11:56;;;;;;;41.85;12.10;;;11.40;99.90;;;12.04;100.00;98814.84;5178402;28;20193;-55
2021/09/01 04:14:30;;;;;;;14.52;11.38;;;11.40;99.90;;;12.05;100.00;98814.09;5174385;28;20195;-55
2021/09/01 04:17:04;;;;;;;15.85;12.38;;;11.40;99.90;;;12.13;100.00;98818.06;5185308;28;20224;-56
2021/09/01 04:19:37;;;;;;;12.75;11.55;;;11.50;99.90;;;12.13;100.00;98809.44;5168632;28;20286;-55
2021/09/01 04:22:10;;;;;;;12.63;11.52;;;11.50;99.90;;;12.22;100.00;98804.03;5175926;28;20223;-56
2021/09/01 04:24:43;;;;;;;11.45;10.55;;;11.60;99.90;;;12.21;100.00;98807.41;5171463;28;20199;-52
2021/09/01 04:27:16;;;;;;;13.05;11.45;;;11.50;99.90;;;12.25;100.00;98807.72;5168589;28;20221;-56
2021/09/01 04:29:50;;;;;;;11.40;10.40;;;11.50;99.90;;;12.32;100.00;98809.00;5179344;28;20198;-60
2021/09/01 04:32:23;;;;;;;10.57;9.52;;;11.60;99.90;;;12.35;100.00;98812.66;5187446;28;20198;-61
2021/09/01 04:34:56;;;;;;;12.43;9.80;;;11.60;99.90;;;12.38;100.00;98814.53;5184615;28;20202;-60
2021/09/01 04:37:30;;;;;;;11.38;10.27;;;11.60;99.90;;;12.38;100.00;98822.22;5185889;28;20254;-62
2021/09/01 04:40:05;;;;;;;12.25;11.15;;;11.70;99.90;;;12.44;100.00;98814.91;5187391;28;20207;-61
2021/09/01 04:42:38;;;;;;;11.70;10.50;;;11.70;99.90;;;12.49;100.00;98822.91;5187185;28;20206;-59
2021/09/01 04:45:13;;;;;;;10.77;9.73;;;11.80;99.90;;;12.49;100.00;98826.38;5185722;28;21508;-62
2021/09/01 04:47:47;;;;;;;11.05;10.15;;;11.70;99.90;;;12.48;100.00;98832.31;5186733;28;20221;-56
2021/09/01 04:50:20;;;;;;;11.35;10.38;;;11.70;99.90;;;12.52;100.00;98831.69;5187486;28;20205;-56
2021/09/01 04:52:53;;;;;;;11.80;10.68;;;11.80;99.90;;;12.54;100.00;98837.81;5187153;28;20467;-51
2021/09/01 04:55:26;;;;;;;10.43;9.52;;;11.80;99.90;;;12.50;100.00;98829.81;5184773;28;20204;-55
2021/09/01 04:58:00;;;;;;;11.45;10.30;;;11.70;99.90;;;12.56;100.00;98832.78;5185329;28;20223;-55
2021/09/01 05:00:34;;;;;;;10.25;9.35;;;11.80;99.90;;;12.55;100.00;98829.31;5183307;28;20257;-55
2021/09/01 05:03:08;;;;;;;11.88;10.70;;;11.80;99.90;;;12.55;100.00;98836.13;5184966;28;20255;-56
2021/09/01 05:05:41;;;;;;;11.32;10.20;;;11.80;99.90;;;12.59;100.00;98839.00;5180321;28;20627;-54
2021/09/01 05:08:14;;;;;;;10.23;9.27;;;11.80;99.90;;;12.66;100.00;98841.97;5185373;28;20229;-58
2021/09/01 05:10:47;;;;;;;10.77;9.77;;;11.90;99.90;;;12.65;100.00;98842.75;5183129;28;20203;-56
2021/09/01 05:13:20;;;;;;;13.05;10.93;;;11.80;99.90;;;12.64;100.00;98844.41;5184116;28;20293;-54
2021/09/01 05:15:55;;;;;;;10.93;10.02;;;11.80;99.90;;;12.65;100.00;98842.75;5181855;28;20642;-52
2021/09/01 05:18:28;;;;;;;12.48;9.88;;;11.80;99.90;;;12.65;100.00;98845.31;5187032;28;20705;-54
2021/09/01 05:21:02;;;;;;;9.50;8.70;;;11.80;99.90;;;12.64;100.00;98839.28;5186370;28;20240;-57
2021/09/01 05:23:36;;;;;;;13.82;10.15;;;11.80;99.90;;;12.63;100.00;98838.41;5185248;28;20202;-56
2021/09/01 05:26:10;;;;;;;15.52;10.10;;;11.80;99.90;;;12.61;100.00;98839.97;5176699;28;20202;-60
2021/09/01 05:28:46;;;;;;;11.45;10.20;;;11.90;99.90;;;12.66;100.00;98842.84;5185782;28;20665;-52
2021/09/01 05:31:23;;;;;;;10.80;9.70;;;11.90;99.90;;;12.73;100.00;98845.00;5185534;28;20202;-58
2021/09/01 05:33:56;;;;;;;11.57;10.43;;;12.00;99.90;;;12.70;100.00;98847.38;5185771;28;20681;-58
2021/09/01 05:36:30;;;;;;;11.77;9.30;;;11.90;99.90;;;12.60;99.84;98845.91;5185218;28;20226;-58
2021/09/01 05:39:03;;;;;;;9.52;8.63;;;11.80;99.90;;;12.66;100.00;98852.22;5186049;28;20289;-54
2021/09/01 05:41:37;;;;;;;10.02;9.02;;;11.80;99.90;;;12.72;100.00;98848.38;5185252;28;20228;-56
2021/09/01 05:44:10;;;;;;;10.68;9.68;;;11.90;99.90;;;12.77;100.00;98848.69;5184325;28;20202;-54
2021/09/01 05:46:47;;;;;;;11.57;10.48;;;12.00;99.90;;;12.85;100.00;98844.94;5181280;28;20230;-58
2021/09/01 05:49:23;;;;;;;15.90;10.40;;;12.10;99.90;;;12.78;99.94;98840.19;5182392;28;20202;-53
2021/09/01 05:51:57;;;;;;;11.48;10.00;;;11.90;99.90;;;12.84;100.00;98845.69;5180529;28;20645;-56
2021/09/01 05:54:30;;;;;;;10.98;9.90;;;12.00;99.90;;;12.88;99.49;98842.56;5176414;28;20206;-58
2021/09/01 05:57:10;;;;;;;15.23;10.75;;;12.00;99.90;;;12.76;98.26;98834.97;5166778;28;20634;-52
2021/09/01 05:59:48;;;;;;;20.63;11.68;;;11.80;99.90;;;12.69;98.88;98837.03;5172319;28;20205;-55
2021/09/01 06:02:38;;;;;;;11.90;10.70;;;11.70;99.90;;;12.60;100.00;98840.78;5164050;28;20583;-53
2021/09/01 06:05:12;;;;;;;11.27;10.27;;;11.80;99.90;;;12.75;100.00;98851.13;5175390;28;20292;-55
2021/09/01 06:07:52;;;;;;;13.02;11.05;;;11.90;99.90;;;12.76;100.00;98850.38;5176564;28;20222;-56
2021/09/01 06:10:29;;;;;;;17.40;9.82;;;11.90;99.90;;;12.74;99.86;98845.94;5183550;28;20199;-53
2021/09/01 06:13:04;;;;;;;10.60;9.68;;;11.90;99.90;;;12.74;99.22;98845.94;5175075;28;20721;-58
2021/09/01 06:15:41;;;;;;;11.40;10.50;;;11.90;99.90;;;12.83;99.22;98847.38;5181622;28;20229;-55
2021/09/01 06:18:16;;;;;;;11.85;10.82;;;12.00;99.90;;;12.88;100.00;98855.41;5183889;28;20779;-55
2021/09/01 06:20:49;;;;;;;11.20;10.20;;;12.10;99.90;;;12.89;99.57;98863.97;5182948;28;20236;-56
2021/09/01 06:23:22;;;;;;;11.68;10.48;;;12.10;99.90;;;12.90;98.76;98863.16;5164946;28;20203;-55
2021/09/01 06:25:55;;;;;;;10.95;9.73;;;12.10;99.90;;;13.01;98.89;98851.91;5173589;28;20203;-53
2021/09/01 06:28:28;;;;;;;10.45;9.65;;;12.20;99.90;;;13.19;98.35;98852.19;5183900;28;20602;-55
2021/09/01 06:31:03;;;;;;;9.98;9.18;;;12.30;99.90;;;13.26;97.75;98852.69;5178812;28;20212;-58
2021/09/01 06:33:38;;;;;;;10.40;9.52;;;12.40;99.90;;;13.29;96.51;98852.00;5174067;28;20202;-58
2021/09/01 06:36:11;;;;;;;11.05;10.15;;;12.30;99.90;;;13.25;96.76;98847.47;5184050;28;20202;-56
2021/09/01 06:38:44;;;;;;;12.98;10.40;;;12.30;99.90;;;13.29;96.64;98859.72;5185280;28;20206;-56
2021/09/01 06:41:17;;;;;;;11.05;10.05;;;12.40;99.90;;;13.31;97.01;98859.81;5185184;28;20206;-56
2021/09/01 06:43:50;;;;;;;9.85;9.05;;;12.40;99.90;;;13.29;95.68;98859.72;5183217;28;20605;-55
2021/09/01 06:46:23;;;;;;;9.93;9.13;;;12.40;99.90;;;13.37;96.42;98863.66;5184654;28;20213;-58
2021/09/01 06:48:57;;;;;;;9.98;9.00;;;12.50;99.90;;;13.51;95.85;98867.06;5185215;28;20730;-55
2021/09/01 06:51:30;;;;;;;10.25;9.45;;;12.70;99.90;;;13.63;95.93;98861.81;5183695;28;20190;-56
2021/09/01 06:54:04;;;;;;;10.43;9.52;;;12.80;99.90;;;13.74;96.26;98871.94;5169777;28;20199;-55
2021/09/01 06:56:37;;;;;;;10.27;9.48;;;12.80;99.90;;;13.88;94.88;98874.47;5180065;28;20215;-52
2021/09/01 06:59:10;;;;;;;10.38;9.30;;;12.90;99.90;;;13.93;93.74;98879.06;5168076;28;20204;-56
2021/09/01 07:01:43;;;;;;;10.48;9.57;;;12.90;99.90;;;13.92;93.48;98874.72;5164456;28;20223;-55
2021/09/01 07:04:18;;;;;;;9.35;8.63;;;13.00;99.90;;;14.24;91.84;98877.44;5164489;28;20257;-58
2021/09/01 07:06:51;;;;;;;9.63;8.82;;;13.20;99.90;;;14.24;91.55;98878.31;5177455;28;20228;-55
2021/09/01 07:09:24;;;;;;;10.27;9.38;;;13.30;99.90;;;14.39;91.74;98875.75;5184727;28;20218;-56
2021/09/01 07:11:57;;;;;;;10.98;9.85;;;13.40;99.90;;;14.51;90.39;98871.34;5184796;28;20202;-55
2021/09/01 07:14:30;;;;;;;9.30;8.60;;;13.40;99.90;;;14.77;90.15;98877.13;5184703;28;20202;-54
2021/09/01 07:17:03;;;;;;;10.10;9.30;;;13.70;99.90;;;14.85;88.72;98875.84;5170759;28;20326;-56
2021/09/01 07:19:38;;;;;;;9.93;9.13;;;13.90;99.90;;;14.99;88.55;98886.94;5164259;28;20210;-56
2021/09/01 07:22:11;;;;;;;10.10;9.30;;;14.00;99.90;;;15.04;87.33;98894.13;5164383;28;20264;-56
2021/09/01 07:24:44;;;;;;;10.02;9.18;;;14.10;99.90;;;15.10;87.39;98880.72;5164547;28;20209;-54
2021/09/01 07:27:17;;;;;;;9.60;8.80;;;14.10;99.90;;;15.33;87.21;98890.59;5177698;28;20305;-55
2021/09/01 07:29:50;;;;;;;9.65;8.85;;;14.30;99.90;;;15.57;85.50;98889.25;5188373;28;20206;-58
2021/09/01 07:32:23;;;;;;;8.95;8.15;;;14.50;99.90;;;15.93;85.26;98898.09;5188766;28;20198;-55
2021/09/01 07:34:58;;;;;;;9.77;8.93;;;14.80;99.90;;;16.14;83.61;98888.94;5188899;28;20742;-59
2021/09/01 07:37:31;;;;;;;9.70;8.90;;;15.00;99.90;;;16.16;81.56;98895.03;5171887;28;20273;-55
2021/09/01 07:40:06;;;;;;;9.07;8.38;;;15.00;99.90;;;16.35;83.13;98893.41;5168720;28;20249;-59
2021/09/01 07:42:39;;;;;;;9.70;8.90;;;15.20;99.90;;;16.36;81.46;98897.75;5167922;28;20231;-56
2021/09/01 07:45:15;;;;;;;8.65;8.02;;;15.20;99.90;;;16.66;82.19;98894.16;5168162;28;20203;-54
2021/09/01 07:47:50;;;;;;;9.82;9.02;;;15.60;99.90;;;17.05;81.35;98891.78;5188789;28;20260;-60
2021/09/01 07:50:30;;;;;;;9.57;8.88;;;15.90;99.90;;;17.16;78.00;98888.81;5184619;28;20208;-60
2021/09/01 07:53:03;;;;;;;9.32;8.52;;;16.00;99.90;;;17.25;78.06;98891.81;5195754;28;20210;-59
2021/09/01 07:55:36;;;;;;;9.82;9.02;;;16.10;99.90;;;17.50;77.52;98893.88;5195746;28;20198;-60
2021/09/01 07:58:09;;;;;;;8.45;7.75;;;16.20;99.90;;;17.65;78.02;98894.56;5193928;28;20897;-60
2021/09/01 08:00:42;;;;;;;8.88;8.18;;;16.30;99.90;;;18.01;76.43;98891.91;5195279;28;20203;-60
2021/09/01 08:03:15;;;;;;;9.23;8.52;;;16.70;99.90;;;18.34;76.34;98894.19;5195040;28;20222;-61
2021/09/01 08:05:50;;;;;;;8.80;8.10;;;17.00;99.90;;;18.69;73.98;98900.88;5193859;28;20208;-61
2021/09/01 08:08:23;;;;;;;9.70;8.90;;;17.50;99.90;;;18.89;73.20;98897.44;5194036;28;20228;-60
2021/09/01 08:10:56;;;;;;;8.18;7.57;;;17.70;99.90;;;19.07;72.40;98907.66;5189623;28;20566;-60
2021/09/01 08:13:29;;;;;;;9.00;8.30;;;17.90;99.90;;;19.21;71.45;98916.00;5175576;28;20301;-60
2021/09/01 08:16:02;;;;;;;8.63;7.93;;;18.10;99.90;;;19.25;70.76;98911.81;5190715;28;20222;-61
2021/09/01 08:18:35;;;;;;;9.02;8.32;;;18.20;99.90;;;19.44;70.30;98913.44;5196858;28;20237;-60
2021/09/01 08:21:10;;;;;;;9.98;9.07;;;18.50;99.90;;;19.59;69.84;98916.59;5191222;28;20203;-61
2021/09/01 08:23:43;;;;;;;11.65;10.65;;;18.40;99.90;;;19.60;68.98;98913.16;5177016;28;20317;-60
2021/09/01 08:26:16;;;;;;;10.05;9.15;;;18.60;99.90;;;19.49;69.41;98917.09;5178334;28;20222;-61
2021/09/01 08:28:51;;;;;;;10.68;9.73;;;18.40;99.90;;;19.26;70.10;98917.06;5185083;28;20289;-62
2021/09/01 08:31:24;;;;;;;10.93;10.02;;;18.50;99.90;;;19.17;70.58;98920.97;5194370;28;20269;-61
2021/09/01 08:33:57;;;;;;;10.93;9.93;;;18.50;99.90;;;19.33;70.39;98911.28;5175205;28;20195;-62
2021/09/01 08:36:31;;;;;;;10.73;9.82;;;18.60;99.90;;;19.68;69.77;98905.72;5173833;28;20223;-62
2021/09/01 08:39:05;;;;;;;9.75;8.95;;;18.90;99.90;;;19.89;69.65;98900.47;5173748;28;20293;-62
2021/09/01 08:41:38;;;;;;;11.23;10.32;;;19.20;99.90;;;19.99;68.87;98907.75;5172639;28;20270;-62
2021/09/01 08:44:11;;;;;;;10.82;9.93;;;19.40;99.90;;;20.21;68.77;98902.50;5182699;28;20221;-62
2021/09/01 08:46:48;;;;;;;10.82;9.90;;;19.60;99.90;;;20.18;69.05;98898.94;5194232;28;20290;-62
2021/09/01 08:49:21;;;;;;;10.32;9.52;;;19.60;99.90;;;20.38;68.48;98891.84;5194087;28;20293;-62
2021/09/01 08:51:57;;;;;;;9.35;8.45;;;19.80;99.90;;;20.64;67.76;98893.66;5187357;28;20202;-62
2021/09/01 08:54:30;;;;;;;10.05;9.15;;;20.00;99.90;;;20.82;66.74;98887.31;5183884;28;20206;-62
2021/09/01 08:57:03;;;;;;;10.50;9.50;;;20.20;99.90;;;20.84;65.74;98890.84;5186557;28;20621;-62
2021/09/01 08:59:37;;;;;;;9.15;8.35;;;20.20;99.90;;;20.75;65.40;98896.63;5189811;28;20201;-62
2021/09/01 09:02:12;;;;;;;10.00;9.10;;;20.30;99.90;;;20.81;64.99;98890.75;5194019;28;20271;-62
2021/09/01 09:04:45;;;;;;;10.18;9.27;;;20.30;99.90;;;21.02;64.61;98896.63;5194215;28;20257;-62
2021/09/01 09:07:23;;;;;;;9.25;8.50;;;20.50;99.90;;;21.10;64.63;98900.34;5185976;28;20774;-62
2021/09/01 09:09:57;;;;;;;9.23;8.43;;;20.70;99.90;;;21.20;65.26;98893.72;5173926;28;20290;-62
2021/09/01 09:12:32;;;;;;;7.88;7.28;;;20.70;99.90;;;21.47;66.46;98891.16;5173440;28;20706;-62
2021/09/01 09:15:07;;;;;;;9.07;8.27;;;21.10;99.90;;;21.87;63.50;98897.53;5185937;28;20198;-62
2021/09/01 09:17:40;;;;;;;8.65;7.95;;;21.50;99.90;;;21.90;62.37;98892.41;5183394;28;20788;-62
2021/09/01 09:20:13;;;;;;;7.97;7.28;;;21.40;99.90;;;21.98;63.30;98890.91;5176363;28;20628;-62
2021/09/01 09:22:51;;;;;;;8.05;7.45;;;21.60;99.90;;;22.22;61.80;98879.44;5173905;28;20589;-62
2021/09/01 09:25:28;;;;;;;7.63;7.03;;;21.70;99.90;;;22.41;61.85;98871.28;5174147;28;20207;-62
2021/09/01 09:28:03;;;;;;;8.10;7.43;;;22.00;99.90;;;22.70;60.55;98873.75;5185213;28;20221;-62
2021/09/01 09:30:41;;;;;;;8.00;7.40;;;22.10;99.90;;;23.01;58.30;98866.72;5190779;28;20224;-62
2021/09/01 09:33:16;;;;;;;7.63;6.82;;;22.40;99.90;;;23.27;56.78;98876.03;5176838;28;20294;-62
2021/09/01 09:35:57;;;;;;;7.03;6.43;;;22.70;99.90;;;23.25;53.91;98875.09;5174912;28;20213;-63
2021/09/01 09:38:39;;;;;;;7.78;7.10;;;22.60;99.90;;;23.03;54.73;98872.84;5186039;28;20250;-59
2021/09/01 09:41:22;;;;;;;6.70;6.20;;;22.20;99.90;;;22.65;55.25;98881.44;5174612;28;20630;-63
2021/09/01 09:43:57;;;;;;;6.85;6.25;;;21.70;99.90;;;22.44;55.33;98871.38;5174075;28;20231;-62
2021/09/01 09:46:31;;;;;;;7.13;6.53;;;21.50;99.90;;;22.10;56.36;98868.66;5174294;28;20229;-62
2021/09/01 09:49:06;;;;;;;7.13;5.95;;;21.20;99.90;;;21.89;57.23;98872.44;5190340;28;20209;-62
2021/09/01 09:51:42;;;;;;;6.47;5.90;;;21.00;99.90;;;21.81;53.94;98866.13;5192584;28;20244;-60
2021/09/01 09:54:18;;;;;;;6.15;5.60;;;21.00;99.90;;;21.67;55.31;98862.25;5192618;28;20208;-60
2021/09/01 09:57:05;;;;;;;6.13;5.53;;;20.90;99.90;;;21.82;55.61;98857.47;5181754;28;20273;-60
2021/09/01 09:59:40;;;;;;;6.30;5.63;;;21.20;99.90;;;22.02;52.18;98858.03;5187626;28;20233;-62
2021/09/01 10:02:13;;;;;;;6.63;5.80;;;21.40;99.90;;;21.99;51.32;98850.13;5192009;28;20205;-63
2021/09/01 10:04:46;;;;;;;6.05;5.57;;;21.50;99.90;;;21.93;51.23;98850.84;5190556;28;20221;-62
2021/09/01 10:07:19;;;;;;;6.25;5.75;;;21.50;99.90;;;22.01;52.05;98838.91;5182097;28;20215;-63
2021/09/01 10:09:54;;;;;;;5.80;5.40;;;21.50;99.90;;;21.98;51.77;98849.25;5173341;28;20209;-62
2021/09/01 10:12:27;;;;;;;6.13;5.63;;;21.50;99.90;;;22.14;52.45;98837.53;5187325;28;20202;-62
2021/09/01 10:15:03;;;;;;;6.30;5.70;;;21.70;99.90;;;22.44;49.87;98845.31;5179746;28;20226;-63
2021/09/01 10:17:41;;;;;;;5.93;5.43;;;21.90;99.30;;;22.36;47.55;98849.44;5187492;28;20226;-63
2021/09/01 10:20:19;;;;;;;5.55;5.15;;;21.90;97.40;;;22.36;46.48;98844.22;5177982;28;20289;-63
2021/09/01 10:23:01;;;;;;;5.72;5.32;;;21.90;96.60;;;22.29;47.26;98850.13;5178001;28;20205;-63
2021/09/01 10:25:41;;;;;;;5.70;5.20;;;21.70;97.20;;;22.33;47.42;98841.53;5179290;28;20652;-62
2021/09/01 10:28:34;;;;;;;5.80;5.32;;;21.80;97.30;;;22.68;48.17;98844.16;5180714;28;20326;-62
2021/09/01 10:31:33;;;;;;;5.43;4.97;;;22.10;97.70;;;22.88;46.84;98840.31;5183534;28;20289;-62
2021/09/01 10:34:21;;;;;;;5.88;5.38;;;22.40;96.80;;;22.92;45.73;98844.75;5186688;28;20988;-62
2021/09/01 10:36:55;;;;;;;5.40;5.00;;;22.50;96.00;;;22.69;46.35;98849.44;5182462;28;20608;-63
2021/09/01 10:39:46;;;;;;;5.63;5.15;;;22.30;96.20;;;22.90;46.12;98849.06;5188742;28;20301;-63
2021/09/01 10:42:39;;;;;;;6.03;5.50;;;22.40;96.00;;;22.84;46.90;98840.22;5191123;28;20198;-63